Time;durP1;ratioP1;P1;durP2;ratioP2;P2;SDS_P1;SDS_P2;PMS_P1;PMS_P2;Temp;Humidity;BMP_temperature;BMP_pressure;BME280_temperature;BME280_humidity;BME280_pressure;Samples;Min_cycle;Max_cycle;Signal;HPM_P1;HPM_P2
2024/01/01 00:01:55;;;;;;;16.33;14.97;;;8.60;99.90;;;;;;5012900;28;20659;-70
2024/01/01 00:04:26;;;;;;;16.80;15.47;;;8.60;99.90;;;;;;5030961;28;20287;-69
2024/01/01 00:06:53;;;;;;;16.77;15.37;;;8.50;99.90;;;;;;5030159;28;20308;-68
2024/01/01 00:09:20;;;;;;;15.43;14.07;;;8.40;99.90;;;;;;5016314;28;20655;-68
2024/01/01 00:11:47;;;;;;;15.17;13.90;;;8.40;99.90;;;;;;5030569;28;20188;-64
2024/01/01 00:14:14;;;;;;;15.33;14.13;;;8.50;99.90;;;;;;5011324;28;20258;-73
2024/01/01 00:16:41;;;;;;;15.20;14.10;;;8.60;99.90;;;;;;5012262;28;20199;-62
2024/01/01 00:19:08;;;;;;;15.27;14.07;;;8.60;99.90;;;;;;5013958;28;20660;-62
2024/01/01 00:21:36;;;;;;;15.23;14.13;;;8.60;99.90;;;;;;5025718;28;20228;-62
2024/01/01 00:24:04;;;;;;;17.20;14.57;;;8.60;99.90;;;;;;5010608;28;20232;-69
2024/01/01 00:26:31;;;;;;;16.40;14.90;;;8.60;99.90;;;;;;5016781;28;20429;-63
2024/01/01 00:29:00;;;;;;;15.50;14.03;;;8.70;99.90;;;;;;5008260;28;20230;-62
2024/01/01 00:31:27;;;;;;;14.60;13.50;;;8.70;99.90;;;;;;5010001;28;20587;-61
2024/01/01 00:33:55;;;;;;;15.63;14.40;;;8.70;99.90;;;;;;5010985;28;20753;-62
2024/01/01 00:36:22;;;;;;;16.50;15.10;;;8.70;99.90;;;;;;5011226;28;20257;-64
2024/01/01 00:38:51;;;;;;;14.63;13.63;;;8.70;99.90;;;;;;5025667;28;20196;-62
2024/01/01 00:41:18;;;;;;;14.67;13.57;;;8.70;99.90;;;;;;4996926;28;20231;-67
2024/01/01 00:43:45;;;;;;;14.07;12.87;;;8.70;99.90;;;;;;5028771;28;20279;-66
2024/01/01 00:46:12;;;;;;;14.47;13.17;;;8.70;99.90;;;;;;5011243;28;20216;-62
2024/01/01 00:48:39;;;;;;;14.87;13.63;;;8.70;99.90;;;;;;5025638;28;20653;-62
2024/01/01 00:51:07;;;;;;;14.60;13.60;;;8.70;99.90;;;;;;5028523;28;20587;-61
2024/01/01 00:53:34;;;;;;;15.57;14.07;;;8.70;99.90;;;;;;5025853;28;20250;-62
2024/01/01 00:56:01;;;;;;;14.97;13.53;;;8.70;99.90;;;;;;5032105;28;20283;-64
2024/01/01 00:58:28;;;;;;;15.27;14.27;;;8.80;99.90;;;;;;5013244;28;20229;-62
2024/01/01 01:00:58;;;;;;;15.17;13.80;;;8.70;99.90;;;;;;5030086;28;20727;-63
2024/01/01 01:03:25;;;;;;;17.40;15.10;;;8.70;99.90;;;;;;4993191;28;20680;-61
2024/01/01 01:05:52;;;;;;;16.70;15.30;;;8.70;99.90;;;;;;5012146;28;20666;-62
2024/01/01 01:08:19;;;;;;;15.87;14.67;;;8.70;99.90;;;;;;5024380;28;20196;-64
2024/01/01 01:10:47;;;;;;;16.57;14.97;;;8.80;99.90;;;;;;5012786;28;20515;-63
2024/01/01 01:13:18;;;;;;;16.07;14.40;;;8.80;99.90;;;;;;4996584;28;20226;-67
2024/01/01 01:15:45;;;;;;;15.87;14.67;;;8.70;99.90;;;;;;5013295;28;20204;-68
2024/01/01 01:18:12;;;;;;;15.73;14.40;;;8.80;99.90;;;;;;5030759;28;20742;-68
2024/01/01 01:20:39;;;;;;;17.63;16.10;;;8.80;99.90;;;;;;4998201;28;20215;-69
2024/01/01 01:23:06;;;;;;;16.80;15.47;;;8.80;99.90;;;;;;5030391;28;20242;-62
2024/01/01 01:25:36;;;;;;;17.07;15.63;;;8.80;99.90;;;;;;4997679;28;20268;-66
2024/01/01 01:28:03;;;;;;;16.33;15.03;;;8.80;99.90;;;;;;5029899;28;20197;-62
2024/01/01 01:30:31;;;;;;;16.77;15.47;;;8.80;99.90;;;;;;5012125;28;20181;-63
2024/01/01 01:32:58;;;;;;;17.33;15.73;;;8.80;99.90;;;;;;5012358;28;20567;-63
2024/01/01 01:35:26;;;;;;;16.50;14.80;;;8.80;99.90;;;;;;5013315;28;20228;-63
2024/01/01 01:37:53;;;;;;;17.40;15.83;;;8.70;99.90;;;;;;4996797;28;20205;-64
2024/01/01 01:40:22;;;;;;;17.77;15.87;;;8.70;99.90;;;;;;5023799;28;20196;-62
2024/01/01 01:42:50;;;;;;;17.50;15.90;;;8.70;99.90;;;;;;5017433;28;20250;-64
2024/01/01 01:45:17;;;;;;;18.10;16.33;;;8.80;99.90;;;;;;5016889;28;20208;-62
2024/01/01 01:47:46;;;;;;;17.00;15.70;;;8.70;99.90;;;;;;5012103;28;20176;-67
2024/01/01 01:50:14;;;;;;;18.10;16.13;;;8.70;99.90;;;;;;4985002;28;20581;-64
2024/01/01 01:52:44;;;;;;;17.67;16.17;;;8.70;99.90;;;;;;5028793;28;20196;-65
2024/01/01 01:55:13;;;;;;;18.63;16.70;;;8.70;99.90;;;;;;5001456;28;20200;-63
2024/01/01 01:57:43;;;;;;;17.23;15.83;;;8.70;99.90;;;;;;5005999;28;20203;-64
2024/01/01 02:00:11;;;;;;;18.90;17.20;;;8.70;99.90;;;;;;5011589;28;20656;-62
2024/01/01 02:02:39;;;;;;;18.37;16.47;;;8.80;99.90;;;;;;5011895;28;20220;-64
2024/01/01 02:05:06;;;;;;;18.67;16.93;;;8.70;99.90;;;;;;5028672;28;20671;-61
2024/01/01 02:07:35;;;;;;;20.33;16.33;;;8.70;99.90;;;;;;5028835;28;20275;-62
2024/01/01 02:10:03;;;;;;;18.90;16.90;;;8.70;99.90;;;;;;5004378;28;20193;-61
2024/01/01 02:12:31;;;;;;;17.87;16.03;;;8.60;99.90;;;;;;5012527;28;20513;-63
2024/01/01 02:14:59;;;;;;;17.20;15.80;;;8.70;99.90;;;;;;5012308;28;20208;-63
2024/01/01 02:17:27;;;;;;;17.43;15.63;;;8.60;99.90;;;;;;4993224;28;20250;-62
2024/01/01 02:19:54;;;;;;;17.70;15.87;;;8.60;99.90;;;;;;5028562;28;20198;-61
2024/01/01 02:22:37;;;;;;;17.23;15.73;;;8.60;99.90;;;;;;5025997;28;20192;-68
2024/01/01 02:25:06;;;;;;;18.63;16.83;;;8.60;99.90;;;;;;5012034;28;20214;-67
2024/01/01 02:27:34;;;;;;;17.37;15.53;;;8.50;99.90;;;;;;5030513;28;20596;-67
2024/01/01 02:30:01;;;;;;;16.37;15.17;;;8.40;99.90;;;;;;5030786;28;20640;-66
2024/01/01 02:32:28;;;;;;;18.93;14.90;;;8.40;99.90;;;;;;5030221;28;20195;-67
2024/01/01 02:34:56;;;;;;;15.97;14.60;;;8.40;99.90;;;;;;5012828;28;20223;-67
2024/01/01 02:37:23;;;;;;;15.67;14.53;;;8.40;99.90;;;;;;5017170;28;20203;-67
2024/01/01 02:39:50;;;;;;;15.90;14.33;;;8.40;99.90;;;;;;4991780;28;20288;-65
2024/01/01 02:42:18;;;;;;;15.23;13.90;;;8.50;99.90;;;;;;5005029;28;20197;-68
2024/01/01 02:44:45;;;;;;;15.63;14.43;;;8.50;99.90;;;;;;5025744;28;20258;-66
2024/01/01 02:47:12;;;;;;;15.70;14.30;;;8.60;99.90;;;;;;5029017;28;20278;-66
2024/01/01 02:49:39;;;;;;;15.63;14.13;;;8.60;99.90;;;;;;5012060;28;20225;-68
2024/01/01 02:52:06;;;;;;;15.63;13.97;;;8.60;99.90;;;;;;5010170;28;20197;-68
2024/01/01 02:54:33;;;;;;;15.23;13.83;;;8.60;99.90;;;;;;5030557;28;20321;-66
2024/01/01 02:57:00;;;;;;;14.93;13.60;;;8.60;99.90;;;;;;5030736;28;20675;-67
2024/01/01 02:59:26;;;;;;;15.40;14.20;;;8.60;99.90;;;;;;5028613;28;20663;-69
2024/01/01 03:05:53;;;;;;;14.70;13.33;;;8.60;99.90;;;;;;5025701;28;20331;-65
2024/01/01 03:08:21;;;;;;;15.00;13.93;;;8.60;99.90;;;;;;5008752;28;20246;-68
2024/01/01 03:10:48;;;;;;;14.77;13.77;;;8.60;99.90;;;;;;5026079;28;20220;-69
2024/01/01 03:13:15;;;;;;;15.90;14.23;;;8.60;99.90;;;;;;5022396;28;20675;-69
2024/01/01 03:15:42;;;;;;;14.80;13.80;;;8.60;99.90;;;;;;5021259;28;20193;-69
2024/01/01 03:18:11;;;;;;;14.83;13.77;;;8.70;99.90;;;;;;5021438;28;20428;-69
2024/01/01 03:20:38;;;;;;;15.27;13.73;;;8.60;99.90;;;;;;5007667;28;20200;-69
2024/01/01 03:23:05;;;;;;;15.50;13.97;;;8.60;99.90;;;;;;5028419;28;20719;-68
2024/01/01 03:25:32;;;;;;;15.60;14.30;;;8.50;99.90;;;;;;5024365;28;20218;-68
2024/01/01 03:27:59;;;;;;;15.30;13.80;;;8.50;99.90;;;;;;5027471;28;20660;-68
2024/01/01 03:30:26;;;;;;;15.40;14.00;;;8.30;99.90;;;;;;5012935;28;20672;-68
2024/01/01 03:32:53;;;;;;;14.43;13.47;;;8.20;99.90;;;;;;5027172;28;20271;-63
2024/01/01 03:35:21;;;;;;;15.30;13.80;;;7.90;99.90;;;;;;5024197;28;20630;-62
2024/01/01 03:37:48;;;;;;;14.47;13.53;;;7.70;99.90;;;;;;5013104;28;20196;-62
2024/01/01 03:40:15;;;;;;;14.13;13.00;;;7.40;99.90;;;;;;5011553;28;20663;-63
2024/01/01 03:42:42;;;;;;;13.60;12.80;;;7.20;99.90;;;;;;5009769;28;20197;-69
2024/01/01 03:45:09;;;;;;;13.50;12.60;;;7.10;99.90;;;;;;5020253;28;20672;-69
2024/01/01 03:47:36;;;;;;;13.40;12.43;;;7.00;99.90;;;;;;5011476;28;20201;-69
2024/01/01 03:50:06;;;;;;;13.50;12.70;;;6.90;99.90;;;;;;5024520;28;20703;-69
2024/01/01 03:52:33;;;;;;;13.20;12.40;;;6.90;99.90;;;;;;5015135;28;20661;-68
2024/01/01 03:55:00;;;;;;;13.60;12.60;;;6.90;99.90;;;;;;5010749;28;20222;-69
2024/01/01 03:57:27;;;;;;;13.33;12.53;;;6.90;99.90;;;;;;5008905;28;20303;-68
2024/01/01 03:59:55;;;;;;;13.40;12.50;;;6.90;99.90;;;;;;4994194;28;20695;-66
2024/01/01 04:02:23;;;;;;;13.63;12.40;;;6.90;99.90;;;;;;5028878;28;20199;-66
2024/01/01 04:04:50;;;;;;;13.90;12.93;;;6.90;99.90;;;;;;5016745;28;20216;-69
2024/01/01 04:07:17;;;;;;;13.70;12.80;;;6.90;99.90;;;;;;5024558;28;20301;-65
2024/01/01 04:09:45;;;;;;;14.50;13.00;;;6.90;99.90;;;;;;5007921;28;20730;-68
2024/01/01 04:12:12;;;;;;;13.23;12.33;;;7.00;99.90;;;;;;5006329;28;20255;-68
2024/01/01 04:14:40;;;;;;;12.90;12.10;;;7.00;99.90;;;;;;5029619;28;20196;-69
2024/01/01 04:17:07;;;;;;;12.87;12.03;;;7.00;99.90;;;;;;5009785;28;20204;-69
2024/01/01 04:19:34;;;;;;;13.27;12.27;;;7.00;99.90;;;;;;5028635;28;20549;-69
2024/01/01 04:22:01;;;;;;;13.23;12.10;;;7.10;99.90;;;;;;5012635;28;20215;-69
2024/01/01 04:24:29;;;;;;;12.97;12.00;;;7.10;99.90;;;;;;5031542;28;20679;-70
2024/01/01 04:26:56;;;;;;;12.97;11.97;;;7.10;99.90;;;;;;5030820;28;20587;-69
2024/01/01 04:29:23;;;;;;;13.00;12.10;;;7.10;99.90;;;;;;5033015;28;20265;-68
2024/01/01 04:31:50;;;;;;;13.00;12.00;;;7.10;99.90;;;;;;5000035;28;20200;-69
2024/01/01 04:34:17;;;;;;;12.50;11.70;;;7.10;99.90;;;;;;5025769;28;20205;-68
2024/01/01 04:36:44;;;;;;;16.77;12.43;;;7.20;99.90;;;;;;5014727;28;20256;-68
2024/01/01 04:39:11;;;;;;;13.20;12.00;;;7.20;99.90;;;;;;5038308;28;20323;-68
2024/01/01 04:41:38;;;;;;;14.70;12.37;;;7.20;99.90;;;;;;5017422;28;20277;-64
2024/01/01 04:44:05;;;;;;;13.43;12.20;;;7.20;99.90;;;;;;5035875;28;20218;-62
2024/01/01 04:46:33;;;;;;;12.47;11.67;;;7.30;99.90;;;;;;5015099;28;20515;-62
2024/01/01 04:49:00;;;;;;;12.80;11.70;;;7.20;99.90;;;;;;5028288;28;20788;-69
2024/01/01 04:51:27;;;;;;;12.50;11.50;;;7.30;99.90;;;;;;5028729;28;20609;-68
2024/01/01 04:53:54;;;;;;;13.07;11.87;;;7.30;99.90;;;;;;5014869;28;20219;-68
2024/01/01 04:56:23;;;;;;;13.77;12.40;;;7.30;99.90;;;;;;5039051;28;20306;-68
2024/01/01 04:58:52;;;;;;;12.80;11.93;;;7.40;99.90;;;;;;5011783;28;20212;-68
2024/01/01 05:01:19;;;;;;;14.30;12.67;;;7.30;99.90;;;;;;5021546;28;20207;-67
2024/01/01 05:03:46;;;;;;;13.20;12.20;;;7.40;99.90;;;;;;5019033;28;20192;-68
2024/01/01 05:06:13;;;;;;;12.63;11.60;;;7.40;99.90;;;;;;5024967;28;20749;-67
2024/01/01 05:08:40;;;;;;;13.83;12.60;;;7.40;99.90;;;;;;5010749;28;20205;-68
2024/01/01 05:11:07;;;;;;;13.83;12.70;;;7.50;99.90;;;;;;5022273;28;20185;-67
2024/01/01 05:13:34;;;;;;;13.30;11.93;;;7.50;99.90;;;;;;5012051;28;20724;-68
2024/01/01 05:16:01;;;;;;;13.80;12.33;;;7.60;99.90;;;;;;5029631;28;20227;-68
2024/01/01 05:18:28;;;;;;;13.87;12.40;;;7.60;99.90;;;;;;5030110;28;20196;-69
2024/01/01 05:20:55;;;;;;;12.03;11.37;;;7.60;99.90;;;;;;5023406;28;20226;-68
2024/01/01 05:23:22;;;;;;;13.97;12.60;;;7.60;99.90;;;;;;5025967;28;20193;-68
2024/01/01 05:25:49;;;;;;;12.57;11.63;;;7.70;99.90;;;;;;5011741;28;20205;-68
2024/01/01 05:28:16;;;;;;;13.10;11.63;;;7.70;99.90;;;;;;5030502;28;20266;-69
2024/01/01 05:30:43;;;;;;;13.67;12.43;;;7.70;99.90;;;;;;5031137;28;20614;-68
2024/01/01 05:33:10;;;;;;;13.00;12.23;;;7.70;99.90;;;;;;5028306;28;20235;-69
2024/01/01 05:35:39;;;;;;;12.90;12.00;;;7.80;99.90;;;;;;5033949;28;20296;-70
2024/01/01 05:38:06;;;;;;;16.27;12.60;;;7.80;99.90;;;;;;5025824;28;20193;-68
2024/01/01 05:40:33;;;;;;;13.00;12.00;;;7.80;99.90;;;;;;5026917;28;20196;-68
2024/01/01 05:43:00;;;;;;;14.87;12.80;;;7.80;99.90;;;;;;5029657;28;20200;-68
2024/01/01 05:45:27;;;;;;;17.03;13.13;;;7.80;99.90;;;;;;5028298;28;20301;-68
2024/01/01 05:47:54;;;;;;;13.87;12.67;;;7.80;99.90;;;;;;5028491;28;20254;-68
2024/01/01 05:50:22;;;;;;;13.80;12.67;;;7.90;99.90;;;;;;5023516;28;20216;-69
2024/01/01 05:52:49;;;;;;;13.70;12.43;;;7.90;99.90;;;;;;4991358;28;20204;-67
2024/01/01 05:55:16;;;;;;;14.33;12.37;;;7.90;99.90;;;;;;5024271;28;20748;-69
2024/01/01 05:57:43;;;;;;;13.77;12.37;;;7.90;99.90;;;;;;5022053;28;20193;-66
2024/01/01 06:00:12;;;;;;;13.63;12.30;;;7.90;99.90;;;;;;5019279;28;20200;-69
2024/01/01 06:02:39;;;;;;;14.40;13.07;;;7.90;99.90;;;;;;5025615;28;20552;-62
2024/01/01 06:05:06;;;;;;;14.17;12.87;;;8.00;99.90;;;;;;5019282;28;20208;-62
2024/01/01 06:07:33;;;;;;;14.67;13.10;;;8.00;99.90;;;;;;5027721;28;20267;-64
2024/01/01 06:10:00;;;;;;;15.50;13.27;;;8.00;99.90;;;;;;5031812;28;20184;-62
2024/01/01 06:12:28;;;;;;;17.53;12.63;;;8.00;99.90;;;;;;5026954;28;20211;-62
2024/01/01 06:14:54;;;;;;;14.60;13.30;;;8.00;99.90;;;;;;5034945;28;20275;-63
2024/01/01 06:17:21;;;;;;;14.43;12.97;;;8.10;99.90;;;;;;5025104;28;20283;-65
2024/01/01 06:19:50;;;;;;;14.50;12.90;;;8.00;99.90;;;;;;5018736;28;20280;-62
2024/01/01 06:22:18;;;;;;;13.87;12.53;;;8.10;99.90;;;;;;5028272;28;20721;-66
2024/01/01 06:24:45;;;;;;;14.60;13.17;;;8.10;99.90;;;;;;5031395;28;20213;-62
2024/01/01 06:27:12;;;;;;;13.27;12.00;;;8.20;99.90;;;;;;5008573;28;20686;-64
2024/01/01 06:29:39;;;;;;;16.03;13.07;;;8.20;99.90;;;;;;5028226;28;20694;-69
2024/01/01 06:32:06;;;;;;;14.23;12.87;;;8.20;99.90;;;;;;5011590;28;20188;-62
2024/01/01 06:34:33;;;;;;;13.70;12.30;;;8.20;99.90;;;;;;5027635;28;20380;-64
2024/01/01 06:37:00;;;;;;;15.30;12.67;;;8.20;99.90;;;;;;5028114;28;20224;-62
2024/01/01 06:39:27;;;;;;;13.80;12.40;;;8.20;99.90;;;;;;5028024;28;20220;-63
2024/01/01 06:41:54;;;;;;;15.20;12.43;;;8.20;99.90;;;;;;5020352;28;20196;-63
2024/01/01 06:44:25;;;;;;;14.67;13.00;;;8.20;99.90;;;;;;5026844;28;20188;-62
2024/01/01 06:46:52;;;;;;;13.77;12.67;;;8.30;99.90;;;;;;5012415;28;20228;-62
2024/01/01 06:49:19;;;;;;;14.50;13.07;;;8.30;99.90;;;;;;5009081;28;20231;-63
2024/01/01 06:51:51;;;;;;;14.53;13.13;;;8.30;99.90;;;;;;5025645;28;20181;-63
2024/01/01 06:54:18;;;;;;;14.80;13.37;;;8.20;99.90;;;;;;5018338;28;20265;-62
2024/01/01 06:56:45;;;;;;;13.90;12.83;;;8.30;99.90;;;;;;5025384;28;20287;-64
2024/01/01 06:59:15;;;;;;;14.27;12.87;;;8.30;99.90;;;;;;5030576;28;20699;-62
2024/01/01 07:01:43;;;;;;;16.63;13.00;;;8.30;99.90;;;;;;5023167;28;20223;-69
2024/01/01 07:04:11;;;;;;;15.73;12.83;;;8.30;99.90;;;;;;5028062;28;20188;-65
2024/01/01 07:06:38;;;;;;;14.50;13.27;;;8.30;99.90;;;;;;5027213;28;20224;-68
2024/01/01 07:09:08;;;;;;;14.13;13.13;;;8.30;99.90;;;;;;5025566;28;20703;-69
2024/01/01 07:11:34;;;;;;;14.30;12.90;;;8.20;99.90;;;;;;5012693;28;20481;-66
2024/01/01 07:14:03;;;;;;;13.80;12.53;;;8.30;99.90;;;;;;5024269;28;20897;-62
2024/01/01 07:16:30;;;;;;;15.07;13.47;;;8.30;99.90;;;;;;5008673;28;20205;-63
2024/01/01 07:18:57;;;;;;;13.77;12.77;;;8.30;99.90;;;;;;5028230;28;20274;-64
2024/01/01 07:21:24;;;;;;;16.43;13.30;;;8.30;99.90;;;;;;5025809;28;20258;-60
2024/01/01 07:23:51;;;;;;;14.70;12.70;;;8.40;99.90;;;;;;5025113;28;20201;-62
2024/01/01 07:26:18;;;;;;;14.57;13.03;;;8.40;99.90;;;;;;5025168;28;20585;-62
2024/01/01 07:28:45;;;;;;;16.40;12.23;;;8.40;99.90;;;;;;5022658;28;20203;-63
2024/01/01 07:31:12;;;;;;;13.90;12.67;;;8.30;99.90;;;;;;5010688;28;20917;-66
2024/01/01 07:33:39;;;;;;;14.17;12.90;;;8.30;99.90;;;;;;5023235;28;20274;-63
2024/01/01 07:36:11;;;;;;;16.87;13.10;;;8.40;99.90;;;;;;4992506;28;20243;-61
2024/01/01 07:38:41;;;;;;;20.43;13.23;;;8.40;99.90;;;;;;5032310;28;20192;-62
2024/01/01 07:41:09;;;;;;;14.57;13.07;;;8.40;99.90;;;;;;5021019;28;20283;-62
2024/01/01 07:43:36;;;;;;;14.00;12.83;;;8.40;99.90;;;;;;5026134;28;20350;-62
2024/01/01 07:46:03;;;;;;;13.93;12.83;;;8.40;99.90;;;;;;5030568;28;20211;-63
2024/01/01 07:48:30;;;;;;;13.87;12.67;;;8.30;99.90;;;;;;5021842;28;20199;-61
2024/01/01 07:50:59;;;;;;;14.03;12.60;;;8.30;99.90;;;;;;5009167;28;20207;-62
2024/01/01 07:53:26;;;;;;;13.80;12.60;;;8.20;99.90;;;;;;5016621;28;20734;-61
2024/01/01 07:55:53;;;;;;;14.00;12.73;;;8.30;99.90;;;;;;5028955;28;20192;-61
2024/01/01 07:58:20;;;;;;;14.00;12.77;;;8.20;99.90;;;;;;5023903;28;20204;-61
2024/01/01 08:00:47;;;;;;;13.40;12.47;;;8.20;99.90;;;;;;5026688;28;20242;-63
2024/01/01 08:03:14;;;;;;;13.97;12.57;;;8.10;99.90;;;;;;5023685;28;20199;-62
2024/01/01 08:05:41;;;;;;;13.93;12.77;;;8.00;99.90;;;;;;5023829;28;20219;-62
2024/01/01 08:08:08;;;;;;;13.27;12.27;;;8.00;99.90;;;;;;5025425;28;20192;-62
2024/01/01 08:10:36;;;;;;;13.53;12.33;;;7.90;99.90;;;;;;5026922;28;20195;-61
2024/01/01 08:13:03;;;;;;;13.00;11.90;;;7.80;99.90;;;;;;5027529;28;20262;-67
2024/01/01 08:15:30;;;;;;;14.17;12.70;;;7.80;99.90;;;;;;5029896;28;20568;-68
2024/01/01 08:17:58;;;;;;;14.27;12.97;;;7.70;99.90;;;;;;5012292;28;20671;-67
2024/01/01 08:20:25;;;;;;;17.43;15.63;;;7.70;99.90;;;;;;4994854;28;20207;-68
2024/01/01 08:22:52;;;;;;;17.87;14.43;;;7.70;99.90;;;;;;5009769;28;20197;-69
2024/01/01 08:25:19;;;;;;;14.13;13.03;;;7.60;99.90;;;;;;5031777;28;20264;-66
2024/01/01 08:27:47;;;;;;;14.70;13.43;;;7.70;99.90;;;;;;5023465;28;20192;-68
2024/01/01 08:30:14;;;;;;;13.93;12.93;;;7.70;99.90;;;;;;5010529;28;20216;-69
2024/01/01 08:32:41;;;;;;;13.63;12.43;;;7.70;99.90;;;;;;5020679;28;20560;-67
2024/01/01 08:35:08;;;;;;;13.10;12.20;;;7.70;99.90;;;;;;5009799;28;20203;-68
2024/01/01 08:37:36;;;;;;;13.57;12.73;;;7.70;99.90;;;;;;5028526;28;20648;-68
2024/01/01 08:40:04;;;;;;;13.07;12.27;;;7.70;99.90;;;;;;5022895;28;20207;-68
2024/01/01 08:42:31;;;;;;;13.37;12.43;;;7.70;99.90;;;;;;5022336;28;20200;-68
2024/01/01 08:44:58;;;;;;;13.43;12.40;;;7.80;99.90;;;;;;5036041;28;20550;-68
2024/01/01 08:47:25;;;;;;;13.87;12.43;;;7.80;99.90;;;;;;5029894;28;20211;-68
2024/01/01 08:49:52;;;;;;;12.67;11.77;;;7.70;99.90;;;;;;5028828;28;20586;-68
2024/01/01 08:52:19;;;;;;;14.73;12.70;;;7.70;99.90;;;;;;5026636;28;20197;-68
2024/01/01 08:54:46;;;;;;;14.97;12.43;;;7.70;99.90;;;;;;5027507;28;20193;-67
2024/01/01 08:57:15;;;;;;;14.53;13.27;;;7.70;99.90;;;;;;5023317;28;20741;-65
2024/01/01 08:59:41;;;;;;;14.53;13.10;;;7.70;99.90;;;;;;5021763;28;20684;-68
2024/01/01 09:02:09;;;;;;;14.37;13.10;;;7.70;99.90;;;;;;5008801;28;20254;-66
2024/01/01 09:04:36;;;;;;;14.20;13.20;;;7.70;99.90;;;;;;5021563;28;20188;-68
2024/01/01 09:07:04;;;;;;;15.10;13.90;;;7.70;99.90;;;;;;5026682;28;20230;-68
2024/01/01 09:09:31;;;;;;;13.30;12.30;;;7.70;99.90;;;;;;5010673;28;20197;-68
2024/01/01 09:11:58;;;;;;;14.20;12.87;;;7.80;99.90;;;;;;5024113;28;20224;-67
2024/01/01 09:14:25;;;;;;;13.53;12.73;;;7.80;99.90;;;;;;5031283;28;20188;-67
2024/01/01 09:16:52;;;;;;;13.83;12.47;;;7.80;99.90;;;;;;5008715;28;20302;-67
2024/01/01 09:19:19;;;;;;;13.67;12.27;;;7.90;99.90;;;;;;5011207;28;20189;-67
2024/01/01 09:21:46;;;;;;;13.33;12.37;;;7.90;99.90;;;;;;5028286;28;20181;-66
2024/01/01 09:24:14;;;;;;;14.43;13.27;;;7.90;99.90;;;;;;5036828;28;20207;-67
2024/01/01 09:26:41;;;;;;;13.57;12.63;;;7.90;99.90;;;;;;5030991;28;20216;-66
2024/01/01 09:29:08;;;;;;;13.90;12.70;;;7.90;99.90;;;;;;5012374;28;20258;-66
2024/01/01 09:31:36;;;;;;;14.30;13.00;;;7.90;99.90;;;;;;5009494;28;20228;-63
2024/01/01 09:34:06;;;;;;;13.83;12.77;;;7.90;99.90;;;;;;5008884;28;20684;-67
2024/01/01 09:36:34;;;;;;;13.30;12.20;;;7.90;99.90;;;;;;5012726;28;20239;-67
2024/01/01 09:39:06;;;;;;;13.30;12.30;;;8.00;99.90;;;;;;5018406;28;20292;-67
2024/01/01 09:41:33;;;;;;;12.97;12.00;;;8.10;99.90;;;;;;4995940;28;20200;-67
2024/01/01 09:44:01;;;;;;;12.80;12.00;;;8.20;99.90;;;;;;5015882;28;20249;-67
2024/01/01 09:46:32;;;;;;;14.20;12.90;;;8.30;99.90;;;;;;5010951;28;20265;-66
2024/01/01 09:49:01;;;;;;;13.00;12.03;;;8.40;99.90;;;;;;5026620;28;20203;-67
2024/01/01 09:51:28;;;;;;;12.90;12.10;;;8.30;99.90;;;;;;5029584;28;20188;-67
2024/01/01 09:53:55;;;;;;;13.23;12.30;;;8.20;99.90;;;;;;5031300;28;20189;-68
2024/01/01 09:56:22;;;;;;;12.90;12.10;;;8.20;99.90;;;;;;5024768;28;20204;-67
2024/01/01 09:58:49;;;;;;;12.73;11.90;;;8.10;99.90;;;;;;5028537;28;20355;-69
2024/01/01 10:01:16;;;;;;;12.17;11.50;;;8.30;99.90;;;;;;5023326;28;20283;-68
2024/01/01 10:03:43;;;;;;;13.37;12.40;;;8.40;99.90;;;;;;5024313;28;20672;-68
2024/01/01 10:06:11;;;;;;;13.40;12.33;;;8.60;99.90;;;;;;5017102;28;20220;-69
2024/01/01 10:11:42;;;;;;;13.37;12.23;;;8.50;99.90;;;;;;5208663;22;20223;-67
2024/01/01 10:14:17;;;;;;;12.70;12.00;;;8.50;99.90;;;;;;4865889;23;20321;-67
2024/01/01 10:16:45;;;;;;;12.50;11.53;;;8.60;99.90;;;;;;5067995;23;20240;-67
2024/01/01 10:19:13;;;;;;;12.00;11.40;;;8.70;99.90;;;;;;5277290;23;20286;-68
2024/01/01 10:21:41;;;;;;;13.10;11.80;;;9.10;99.90;;;;;;5125676;23;20292;-66
2024/01/01 10:24:21;;;;;;;13.37;12.57;;;9.00;99.90;;;;;;5211568;22;20401;-67
2024/01/01 10:27:01;;;;;;;13.00;12.10;;;8.80;99.90;;;;;;5212587;22;20557;-66
2024/01/01 10:32:08;;;;;;;13.40;12.33;;;8.60;99.90;;;;;;5187330;22;20215;-67
2024/01/01 10:34:47;;;;;;;14.00;12.97;;;8.50;99.90;;;;;;5251548;22;20642;-67
2024/01/01 10:39:50;;;;;;;13.70;12.27;;;8.50;99.90;;;;;;5120967;22;20235;-66
2024/01/01 10:42:47;;;;;;;12.80;12.10;;;8.50;99.90;;;;;;5100101;22;20529;-64
2024/01/01 10:45:14;;;;;;;13.30;12.50;;;8.60;99.90;;;;;;5303559;22;20258;-62
2024/01/01 10:47:49;;;;;;;13.23;12.40;;;8.60;99.90;;;;;;5128601;22;20237;-67
2024/01/01 10:50:31;;;;;;;13.30;12.20;;;8.60;99.90;;;;;;5275706;22;20229;31
2024/01/01 10:53:17;;;;;;;12.60;11.83;;;8.80;99.90;;;;;;5027597;22;20239;-69
2024/01/01 10:55:59;;;;;;;13.70;12.70;;;9.00;99.90;;;;;;5131498;22;20793;31
2024/01/01 10:58:37;;;;;;;14.47;12.97;;;8.90;99.90;;;;;;5029771;22;20639;-67
2024/01/01 11:01:13;;;;;;;13.80;12.77;;;8.80;99.90;;;;;;5177898;22;20258;-67
2024/01/01 11:03:46;;;;;;;13.57;12.57;;;8.70;99.90;;;;;;5159691;22;20290;-68
2024/01/01 11:07:04;;;;;;;13.60;12.63;;;8.50;99.90;;;;;;5162502;22;20237;-62
2024/01/01 11:09:32;;;;;;;13.20;12.23;;;8.40;99.90;;;;;;5067366;23;20310;-63
2024/01/01 11:12:05;;;;;;;13.90;12.93;;;8.40;99.90;;;;;;5029060;23;20324;-64
2024/01/01 11:21:29;;;;;;;14.60;13.50;;;8.20;99.90;;;;;;5029240;23;20719;-62
2024/01/01 11:24:01;;;;;;;14.17;13.17;;;8.10;99.90;;;;;;5048492;23;20253;-62
2024/01/01 11:26:47;;;;;;;13.83;12.80;;;8.10;99.90;;;;;;5031126;23;20531;-62
2024/01/01 11:29:29;;;;;;;13.70;12.73;;;8.00;99.90;;;;;;5016769;23;20241;-63
2024/01/01 11:32:03;;;;;;;14.33;12.93;;;8.00;99.90;;;;;;4838895;23;21577;31
2024/01/01 11:34:30;;;;;;;12.93;12.20;;;8.10;99.90;;;;;;5035848;23;20604;-62
2024/01/01 11:37:21;;;;;;;13.77;12.73;;;8.20;99.90;;;;;;5055574;23;20249;-69
2024/01/01 11:39:58;;;;;;;14.13;12.77;;;8.30;99.90;;;;;;5088842;23;20494;-69
2024/01/01 11:42:29;;;;;;;15.17;13.80;;;8.30;99.90;;;;;;4878625;23;20242;31
2024/01/01 11:45:06;;;;;;;14.70;13.47;;;8.40;99.90;;;;;;5091149;23;20293;-64
2024/01/01 11:47:34;;;;;;;15.00;13.87;;;8.30;99.90;;;;;;5069149;23;20230;-64
2024/01/01 11:50:02;;;;;;;13.57;12.77;;;8.30;99.90;;;;;;5071723;23;20298;-62
2024/01/01 11:52:32;;;;;;;13.10;12.20;;;8.30;99.90;;;;;;4872729;23;21047;-62
2024/01/01 11:54:59;;;;;;;13.30;12.50;;;8.20;99.90;;;;;;5004930;23;20253;-64
2024/01/01 11:57:30;;;;;;;14.57;13.37;;;8.40;99.90;;;;;;5029515;23;20261;-66
2024/01/01 11:59:58;;;;;;;13.07;12.27;;;8.60;99.90;;;;;;5011094;23;20246;-63
2024/01/01 12:02:26;;;;;;;15.60;13.20;;;8.50;99.90;;;;;;4938790;29;20213;-66
2024/01/01 12:04:55;;;;;;;14.23;13.00;;;8.50;99.90;;;;;;4935725;29;20640;-64
2024/01/01 12:07:33;;;;;;;15.27;13.93;;;8.50;99.90;;;;;;4966989;28;20233;-66
2024/01/01 12:10:10;;;;;;;13.40;12.53;;;8.50;99.90;;;;;;4950349;29;20234;-63
2024/01/01 12:12:43;;;;;;;14.70;13.30;;;8.30;99.90;;;;;;4954563;29;20230;-62
2024/01/01 12:15:19;;;;;;;14.37;13.37;;;8.20;99.90;;;;;;4950944;29;20269;-63
2024/01/01 12:17:51;;;;;;;15.03;13.53;;;8.10;99.90;;;;;;4953788;29;20220;-64
2024/01/01 12:20:25;;;;;;;14.50;13.27;;;8.20;99.90;;;;;;4954669;29;20285;-64
2024/01/01 12:22:54;;;;;;;12.97;12.27;;;8.00;99.90;;;;;;4932907;29;20655;-63
2024/01/01 12:25:26;;;;;;;13.57;12.77;;;7.90;99.90;;;;;;4936422;29;20203;-69
2024/01/01 12:28:04;;;;;;;13.10;12.30;;;7.80;99.90;;;;;;4942356;29;20199;-62
2024/01/01 12:30:36;;;;;;;16.17;14.87;;;7.70;99.90;;;;;;4951303;28;20297;-62
2024/01/01 12:33:04;;;;;;;12.90;12.00;;;7.60;99.90;;;;;;4933652;29;20319;-64
2024/01/01 12:35:34;;;;;;;13.70;12.53;;;7.60;99.90;;;;;;4962200;28;20203;-65
2024/01/01 12:38:01;;;;;;;12.70;12.00;;;7.80;99.90;;;;;;4950976;28;20279;-68
2024/01/01 12:40:29;;;;;;;13.50;12.30;;;8.00;99.90;;;;;;4942336;29;20254;-68
2024/01/01 12:42:57;;;;;;;15.10;12.77;;;8.20;99.90;;;;;;4953235;28;20218;-68
2024/01/01 12:45:25;;;;;;;13.07;12.20;;;8.40;99.90;;;;;;4985078;23;20329;-82
2024/01/01 12:47:54;;;;;;;14.33;12.83;;;8.50;99.90;;;;;;4982448;28;20382;-81
2024/01/01 12:50:21;;;;;;;12.47;11.77;;;8.70;99.90;;;;;;4973518;28;20186;-79
2024/01/01 12:52:49;;;;;;;12.77;12.07;;;8.60;99.90;;;;;;4962339;28;20194;-79
2024/01/01 12:55:16;;;;;;;15.33;12.00;;;8.60;99.90;;;;;;4965514;28;20229;-80
2024/01/01 12:57:43;;;;;;;13.27;12.37;;;8.90;99.90;;;;;;4967996;28;20273;-78
2024/01/01 13:00:10;;;;;;;13.43;12.30;;;9.00;99.90;;;;;;4967522;28;20195;-81
2024/01/01 13:02:39;;;;;;;13.57;12.03;;;9.00;99.90;;;;;;4978586;28;20200;-80
2024/01/01 13:05:08;;;;;;;13.53;12.23;;;8.80;99.90;;;;;;4955833;28;20198;-80